Steven De Ligt

Chief Scout - Heerenveen
2 Apr 2028
Sunday
Process

Personality

Adaptability (19) Ambition (1) Controversy (7) Loyalty (20) Pressure (12) Professionalism (3) Sportsmanship (6) Temperament (6)

Profile

Coaching Style Democratic
License Continental B
Determination 4
Man Management 11
Motivating 13
Discipline 12
Job Satisfaction
100%
Fatigue
0%
Role Chief Scout
Wage 63.3K p/w
Contract 14.03.2030

Performance

Behaviour Good
Training Effectiveness
45%
Player Development
30%
Injury Prevention
65%
Tactical Implementation
30%

Recent Events

Attended a recruitment meeting 56d ago
Recommended a transfer target 56d ago
Recommended a transfer target 56d ago
Recommended a transfer target 56d ago
Recommended a transfer target 56d ago
Recommended a transfer target 56d ago
Recommended a transfer target 56d ago

Currently Monitoring

59
Player Club Status Ability Confidence Watched Last Observed Latest Vote
Bailey Cadamarteri Groningen Active 121 / 124 30% 1 / 1m 12.01.2028 -
Denis Bouanga Nacional Active 134 / 134 67% 1 01.01.2028 Approve
Andile Zwane Rosario Central Negotiating 124 / 124 67% 1 01.01.2028 Approve
Mikel Gogorza Minnesota United FC Active 117 / 130 67% 1 01.01.2028 Approve
Jan Plug Feyenoord Active 118 / 132 83% 1 01.01.2028 Approve
Fabián Correa Barranquilla Active 87 / 96 40% 1 01.01.2028 -
Nupe Godstime Bayelsa United Active 93 / 83 40% 1 01.01.2028 -
Flávio Gonçalves Sporting CP Active 126 / 127 40% 1 01.01.2028 -
Sipho Ngqakabana AS Police Active 91 / 93 40% 1 30.08.2027 -
Noah Streit CF Montreal Active 109 / 124 40% 1 30.08.2027 -
Vadim Arutyunyan Dnepr Mogilev Active 92 / 93 40% 1 30.08.2027 -
Assane Diao Como Active 152 / 160 40% 1 09.08.2027 -
Chemsdine Talbi Sunderland Active 147 / 146 40% 1 09.08.2027 -
José Pachuca Puebla Active 115 / 124 40% 1 03.06.2027 -
Halam Loboa Osasuna Active 116 / 119 40% 1 03.06.2027 -
Denys Smetana Inhulets Active 92 / 99 40% 1 03.06.2027 -
Thomas Claes Zulte Waregem Lost 122 / 122 40% 2 31.01.2027 -
Luis Palma Lech Active 121 / 121 40% 1 31.01.2027 -
Casper Nielsen Standard Liege Active 125 / 130 40% 1 31.01.2027 -
Juninho Pumas UNAM Active 127 / 118 40% 5 29.01.2027 -
Jalen Hawkins ADO Den Haag Active 110 / 103 40% 1 29.01.2027 -
Brayan Gil Baltika Active 120 / 124 40% 1 29.01.2027 -
Jon Bautista Eibar Active 124 / 127 40% 1 29.01.2027 -
Ryan Fosso Standard Liege Active 124 / 112 40% 1 29.01.2027 -
Jhojan Julio Queretaro Active 121 / 116 40% 2 26.01.2027 -
Hugo Cuypers Monterrey Active 120 / 135 40% 2 26.01.2027 -
Pedro Raul Corinthians Active 131 / 136 40% 3 25.01.2027 -
Iqraam Rayners Mamelodi Sundowns Active 139 / 118 40% 3 25.01.2027 -
Paul Onuachu Trabzonspor Active 123 / 129 40% 1 25.01.2027 -
Benito Raman KV Mechelen Active 122 / 115 40% 2 23.01.2027 -
Isa Sakamoto Westerlo Active 115 / 121 40% 1 23.01.2027 -
Ludovic Ajorque Stade Brestois Active 138 / 138 40% 1 23.01.2027 -
Tomáš Chorý Slavia Prague Active 138 / 132 40% 2 22.01.2027 -
Munir Albacete Active 126 / 134 40% 2 22.01.2027 -
Mourad Tijuana Active 124 / 115 40% 1 22.01.2027 -
François Kamano Sochi Active 115 / 107 40% 1 22.01.2027 -
Alisson Safira Juventude Active 115 / 113 40% 2 18.01.2027 -
Myron van Brederode KV Mechelen Active 123 / 114 40% 1 18.01.2027 -
Chinedu Geoffrey Krylya Sovetov Active 117 / 118 40% 1 17.01.2027 -
García Pascual Cádiz Active 115 / 112 40% 2 16.01.2027 -
Rodrygo Rangel Veracruz Active 141 / 127 40% 1 16.01.2027 -
Antonio Sanabria Internacional Active 125 / 114 40% 1 15.01.2027 -
Chris Ramos Botafogo Active 122 / 113 40% 1 15.01.2027 -
Adnane Abid Standard Liege Active 114 / 118 40% 1 14.01.2027 -
Iker Benito Queretaro Active 126 / 124 40% 1 14.01.2027 -
Antoine Colassin Charleroi Active 117 / 117 40% 1 14.01.2027 -
Bill Antonio KV Mechelen Active 120 / 116 40% 1 13.01.2027 -
Agustín Palavecino Cruz Azul Active 145 / 140 40% 1 13.01.2027 -
Jason Kompany KV Oostende Active 135 / 124 40% 1 13.01.2027 -
Egas Cacintura Akhmat Grozny Active 121 / 125 40% 1 12.01.2027 -
Moctar Diop KAA Gent Active 120 / 127 40% 1 09.01.2027 -
Aune Heggebø West Bromwich Albion Active 122 / 136 40% 1 08.01.2027 -
Negueba Mirassol Active 132 / 119 40% 1 08.01.2027 -
Ioannis Pittas CSKA Sofia Active 122 / 122 40% 1 08.01.2027 -
Renato Kayser Vitória Active 128 / 128 40% 1 07.01.2027 -
Samed Baždar Sint-Truiden Active 124 / 117 40% 1 30.08.2026 -
Justin-Noël Kalumba Mallorca Active 106 / 115 40% 1 03.08.2026 -
Siebe Van Keymolen Zulte Waregem Active 91 / 96 40% 1 02.08.2026 -
Zsombor Riba Charleroi Active 71 / 78 40% 1 02.08.2026 -